Aviation Digital Data Service (ADDS)

Output produced by METARs form (1150 UTC 28 May 2015)
found at http://www.aviationweather.gov/adds/metars/
 
KBOS 281129Z 2812/2918 22010KT P6SM BKN050 
     FM281700 21013G23KT P6SM VCSH SCT090 BKN200 
     FM282100 22013G27KT P6SM -SHRA BKN050 
     FM282300 24008KT P6SM BKN050 
     FM290200 28005KT P6SM SCT045 
     FM290700 32005KT P6SM FEW250 
     FM291200 03006KT P6SM SKC 
     FM291500 07007KT P6SM SCT045